Time;durP1;ratioP1;P1;durP2;ratioP2;P2;SDS_P1;SDS_P2;PMS_P1;PMS_P2;Temp;Humidity;BMP_temperature;BMP_pressure;BME280_temperature;BME280_humidity;BME280_pressure;Samples;Min_cycle;Max_cycle;Signal;HPM_P1;HPM_P2
2021/10/29 00:00:52;;;;;;;;;;;7.10;1.00;;;;;;5068927;28;19924;-72
2021/10/29 00:03:17;;;;;;;;;;;7.10;1.00;;;;;;5068178;28;19917;-72
2021/10/29 00:05:43;;;;;;;;;;;7.00;1.00;;;;;;5068715;28;19919;-73
2021/10/29 00:08:08;;;;;;;;;;;7.00;1.00;;;;;;5068887;28;20001;-74
2021/10/29 00:10:35;;;;;;;;;;;7.00;1.00;;;;;;5069357;28;19912;-74
2021/10/29 00:13:01;;;;;;;;;;;7.10;1.00;;;;;;5068817;28;19966;-74
2021/10/29 00:15:26;;;;;;;;;;;7.00;1.00;;;;;;5068750;28;19912;-73
2021/10/29 00:17:52;;;;;;;;;;;7.10;1.00;;;;;;5069365;28;19915;-74
2021/10/29 00:20:18;;;;;;;;;;;7.00;1.00;;;;;;5068636;28;19920;-73
2021/10/29 00:22:43;;;;;;;;;;;7.00;1.00;;;;;;5067043;28;19947;-72
2021/10/29 00:25:09;;;;;;;;;;;7.00;1.00;;;;;;5069381;28;19919;-72
2021/10/29 00:27:34;;;;;;;;;;;7.10;1.00;;;;;;5069585;28;19915;-74
2021/10/29 00:30:00;;;;;;;;;;;7.10;1.00;;;;;;5068613;28;19909;-72
2021/10/29 00:32:27;;;;;;;;;;;7.10;1.00;;;;;;5068712;28;19908;-72
2021/10/29 00:34:53;;;;;;;;;;;7.20;1.00;;;;;;5068799;28;19950;-73
2021/10/29 00:37:18;;;;;;;;;;;7.20;1.00;;;;;;5068365;28;19951;-71
2021/10/29 00:39:44;;;;;;;;;;;7.10;1.00;;;;;;5069486;28;19951;-71
2021/10/29 00:42:09;;;;;;;;;;;7.00;1.00;;;;;;5067713;28;19965;-72
2021/10/29 00:44:35;;;;;;;;;;;6.90;1.00;;;;;;5093208;22;20023;-77
2021/10/29 00:47:00;;;;;;;;;;;6.70;1.00;;;;;;5070580;28;20019;-77
2021/10/29 00:49:26;;;;;;;;;;;6.60;1.00;;;;;;5069767;28;19912;-76
2021/10/29 00:51:52;;;;;;;;;;;6.60;1.00;;;;;;5067845;28;19915;-76
2021/10/29 00:54:18;;;;;;;;;;;6.70;1.00;;;;;;5056683;28;19913;-77
2021/10/29 00:56:45;;;;;;;;;;;6.80;1.00;;;;;;5056057;28;19956;-77
2021/10/29 00:59:10;;;;;;;;;;;6.90;1.00;;;;;;5057699;28;20280;-77
2021/10/29 01:01:36;;;;;;;;;;;7.00;1.00;;;;;;5054509;28;19920;-76
2021/10/29 01:04:02;;;;;;;;;;;7.00;1.00;;;;;;5047491;28;19909;-75
2021/10/29 01:06:28;;;;;;;;;;;6.90;1.00;;;;;;5049110;28;20335;-76
2021/10/29 01:08:53;;;;;;;;;;;6.80;1.00;;;;;;5051698;28;20414;-77
2021/10/29 01:11:19;;;;;;;;;;;6.60;1.00;;;;;;5049446;28;19967;-74
2021/10/29 01:13:48;;;;;;;;;;;6.60;1.00;;;;;;5049503;28;19908;-78
2021/10/29 01:16:14;;;;;;;;;;;6.70;1.00;;;;;;5049828;28;19913;-76
2021/10/29 01:18:40;;;;;;;;;;;6.80;1.00;;;;;;5050720;28;20376;-76
2021/10/29 01:21:05;;;;;;;;;;;6.70;1.00;;;;;;5049464;28;19916;-76
2021/10/29 01:23:34;;;;;;;;;;;6.80;1.00;;;;;;5047580;28;19971;-76
2021/10/29 01:26:01;;;;;;;;;;;6.80;1.00;;;;;;5049510;28;19913;-78
2021/10/29 01:28:27;;;;;;;;;;;6.80;1.00;;;;;;5050590;28;20373;-78
2021/10/29 01:30:52;;;;;;;;;;;6.70;1.00;;;;;;5051760;28;20023;-74
2021/10/29 01:33:18;;;;;;;;;;;6.80;1.00;;;;;;5034411;28;20035;-76
2021/10/29 01:35:44;;;;;;;;;;;6.80;1.00;;;;;;5052459;28;19936;-76
2021/10/29 01:38:09;;;;;;;;;;;6.90;1.00;;;;;;5053066;28;19955;-77
2021/10/29 01:40:35;;;;;;;;;;;6.90;1.00;;;;;;5054156;28;19995;-77
2021/10/29 01:43:00;;;;;;;;;;;6.90;1.00;;;;;;5054819;28;20406;-75
2021/10/29 01:45:26;;;;;;;;;;;6.80;1.00;;;;;;5052239;28;19904;-77
2021/10/29 01:47:51;;;;;;;;;;;6.80;1.00;;;;;;5052788;28;19920;-77
2021/10/29 01:50:17;;;;;;;;;;;6.80;1.00;;;;;;5052210;28;19920;-76
2021/10/29 01:52:43;;;;;;;;;;;6.80;1.00;;;;;;5051119;28;19917;-76
2021/10/29 01:55:08;;;;;;;;;;;6.80;1.00;;;;;;5052786;28;19992;-76
2021/10/29 01:57:35;;;;;;;;;;;6.90;1.00;;;;;;5052409;28;19967;-76
2021/10/29 02:00:02;;;;;;;;;;;6.90;1.00;;;;;;5052089;28;19955;-76
2021/10/29 02:02:27;;;;;;;;;;;6.90;1.00;;;;;;5050963;28;20274;-76
2021/10/29 02:04:53;;;;;;;;;;;7.00;1.00;;;;;;5051172;28;19963;-77
2021/10/29 02:07:18;;;;;;;;;;;6.90;1.00;;;;;;5051500;28;19916;-77
2021/10/29 02:09:44;;;;;;;;;;;6.90;1.00;;;;;;5056070;28;19913;-77
2021/10/29 02:12:09;;;;;;;;;;;6.90;1.00;;;;;;5054668;28;19909;-77
2021/10/29 02:14:35;;;;;;;;;;;7.00;1.00;;;;;;5061092;28;19970;-77
2021/10/29 02:17:01;;;;;;;;;;;7.00;1.00;;;;;;5056377;28;19920;-77
2021/10/29 02:19:26;;;;;;;;;;;7.10;1.00;;;;;;5055010;28;19908;-77
2021/10/29 02:21:52;;;;;;;;;;;7.00;1.00;;;;;;5053131;28;19913;-76
2021/10/29 02:24:18;;;;;;;;;;;7.10;1.00;;;;;;5050882;28;19912;-76
2021/10/29 02:26:44;;;;;;;;;;;7.10;1.00;;;;;;5051850;28;20328;-76
2021/10/29 02:29:10;;;;;;;;;;;7.10;1.00;;;;;;5034090;28;19988;-76
2021/10/29 02:31:39;;;;;;;;;;;7.10;1.00;;;;;;5051067;28;20281;-77
2021/10/29 02:34:05;;;;;;;;;;;7.10;1.00;;;;;;5050508;28;19921;-77
2021/10/29 02:36:30;;;;;;;;;;;7.10;1.00;;;;;;5051334;28;19936;-77
2021/10/29 02:38:56;;;;;;;;;;;7.10;1.00;;;;;;5051992;28;20612;-77
2021/10/29 02:41:21;;;;;;;;;;;7.10;1.00;;;;;;5051897;28;19913;-77
2021/10/29 02:43:47;;;;;;;;;;;7.00;1.00;;;;;;5049526;28;19917;-76
2021/10/29 02:46:12;;;;;;;;;;;7.00;1.00;;;;;;5051138;28;19909;-77
2021/10/29 02:48:38;;;;;;;;;;;7.00;1.00;;;;;;5051363;28;20019;-77
2021/10/29 02:51:03;;;;;;;;;;;7.00;1.00;;;;;;5050883;28;19913;-77
2021/10/29 02:53:34;;;;;;;;;;;6.90;1.00;;;;;;5050090;28;19916;-77
2021/10/29 02:56:00;;;;;;;;;;;6.90;1.00;;;;;;5051241;28;20013;-77
2021/10/29 02:58:28;;;;;;;;;;;6.90;1.00;;;;;;5050941;28;19970;-77
2021/10/29 03:00:53;;;;;;;;;;;6.90;1.00;;;;;;5050460;28;19909;-77
2021/10/29 03:03:19;;;;;;;;;;;6.90;1.00;;;;;;5050724;28;20026;-76
2021/10/29 03:05:45;;;;;;;;;;;6.80;1.00;;;;;;5049865;28;19963;-76
2021/10/29 03:08:11;;;;;;;;;;;6.70;1.00;;;;;;5052078;28;20361;-77
2021/10/29 03:10:37;;;;;;;;;;;6.70;1.00;;;;;;5032749;28;19995;-76
2021/10/29 03:13:02;;;;;;;;;;;6.60;1.00;;;;;;5049949;28;20014;-76
2021/10/29 03:15:28;;;;;;;;;;;6.60;1.00;;;;;;5032144;28;20204;-76
2021/10/29 03:17:54;;;;;;;;;;;6.50;1.00;;;;;;5050551;28;19909;-77
2021/10/29 03:20:19;;;;;;;;;;;6.50;1.00;;;;;;5050647;28;19916;-76
2021/10/29 03:22:45;;;;;;;;;;;6.50;1.00;;;;;;5050219;28;19964;-77
2021/10/29 03:25:10;;;;;;;;;;;6.40;1.00;;;;;;5050739;28;19913;-75
2021/10/29 03:27:36;;;;;;;;;;;6.40;1.00;;;;;;5032487;28;19920;-75
2021/10/29 03:30:02;;;;;;;;;;;6.30;1.00;;;;;;5032824;28;19915;-76
2021/10/29 03:32:28;;;;;;;;;;;6.20;1.00;;;;;;5049068;28;19979;-78
2021/10/29 03:34:53;;;;;;;;;;;6.20;1.00;;;;;;5041952;28;19913;-76
2021/10/29 03:38:11;;;;;;;;;;;6.30;1.00;;;;;;5022406;28;19917;-76
2021/10/29 03:40:18;;;;;;;;;;;6.40;1.00;;;;;;5033475;28;20421;-76
2021/10/29 03:46:01;;;;;;;;;;;6.10;1.00;;;;;;5024075;28;20339;-76
2021/10/29 03:48:38;;;;;;;;;;;6.00;1.00;;;;;;5038660;28;19909;-76
2021/10/29 03:51:13;;;;;;;;;;;6.00;1.00;;;;;;5040179;28;19967;-76
2021/10/29 03:53:47;;;;;;;;;;;6.10;1.00;;;;;;5028202;28;20305;-77
2021/10/29 03:56:19;;;;;;;;;;;6.10;1.00;;;;;;5030414;28;20039;-76
2021/10/29 03:58:46;;;;;;;;;;;6.20;1.00;;;;;;5030718;28;19936;-75
2021/10/29 04:01:12;;;;;;;;;;;6.20;1.00;;;;;;5030055;28;19921;-77
2021/10/29 04:03:37;;;;;;;;;;;6.30;1.00;;;;;;5037329;28;19913;-76
2021/10/29 04:06:03;;;;;;;;;;;6.30;1.00;;;;;;5048584;28;19956;-76
2021/10/29 04:08:29;;;;;;;;;;;6.40;1.00;;;;;;5049084;28;19917;-75
2021/10/29 04:10:57;;;;;;;;;;;6.30;1.00;;;;;;5049502;28;20427;-77
2021/10/29 04:13:22;;;;;;;;;;;6.30;1.00;;;;;;5048709;28;19955;-74
2021/10/29 04:15:48;;;;;;;;;;;6.30;1.00;;;;;;5047524;28;19956;-76
2021/10/29 04:18:13;;;;;;;;;;;6.30;1.00;;;;;;5048139;28;19920;-77
2021/10/29 04:20:39;;;;;;;;;;;6.40;1.00;;;;;;5050792;28;19916;-76
2021/10/29 04:23:05;;;;;;;;;;;6.50;1.00;;;;;;5048508;28;19931;-76
2021/10/29 04:25:30;;;;;;;;;;;6.50;1.00;;;;;;5026722;28;20039;-76
2021/10/29 04:28:00;;;;;;;;;;;6.50;1.00;;;;;;5049604;28;19908;-76
2021/10/29 04:30:28;;;;;;;;;;;6.40;1.00;;;;;;5048287;28;20015;-75
2021/10/29 04:32:55;;;;;;;;;;;6.40;1.00;;;;;;5048658;28;19920;-76
2021/10/29 04:35:20;;;;;;;;;;;6.30;1.00;;;;;;5049679;28;19908;-77
2021/10/29 04:37:46;;;;;;;;;;;6.30;1.00;;;;;;5048598;28;19916;-76
2021/10/29 04:40:12;;;;;;;;;;;6.30;1.00;;;;;;5050935;28;19945;-75
2021/10/29 04:42:38;;;;;;;;;;;6.40;1.00;;;;;;5058008;28;19975;-75
2021/10/29 04:45:05;;;;;;;;;;;6.40;1.00;;;;;;5066905;28;19905;-77
2021/10/29 04:47:31;;;;;;;;;;;6.40;1.00;;;;;;5066391;28;19916;-75
2021/10/29 04:49:56;;;;;;;;;;;6.50;1.00;;;;;;5061371;28;19931;-76
2021/10/29 04:52:22;;;;;;;;;;;6.50;1.00;;;;;;5056541;28;19920;-77
2021/10/29 04:54:48;;;;;;;;;;;6.50;1.00;;;;;;5052727;28;19909;-77
2021/10/29 04:57:13;;;;;;;;;;;6.50;1.00;;;;;;5051244;28;20281;-76
2021/10/29 04:59:39;;;;;;;;;;;6.50;1.00;;;;;;5049947;28;19909;-75
2021/10/29 05:02:04;;;;;;;;;;;6.50;1.00;;;;;;5047105;28;19919;-76
2021/10/29 05:04:30;;;;;;;;;;;6.50;1.00;;;;;;5047420;28;19916;-78
2021/10/29 05:06:55;;;;;;;;;;;6.60;1.00;;;;;;5050331;28;19912;-75
2021/10/29 05:09:21;;;;;;;;;;;6.60;1.00;;;;;;5053320;28;19913;-75
2021/10/29 05:11:46;;;;;;;;;;;6.50;1.00;;;;;;5053416;28;19927;-72
2021/10/29 05:14:12;;;;;;;;;;;6.50;1.00;;;;;;5057841;28;20015;-76
2021/10/29 05:16:37;;;;;;;;;;;6.50;1.00;;;;;;5057756;28;19940;-76
2021/10/29 05:19:03;;;;;;;;;;;6.40;1.00;;;;;;5059922;28;19966;-76
2021/10/29 05:21:28;;;;;;;;;;;6.30;1.00;;;;;;5039775;28;20397;-74
2021/10/29 05:23:54;;;;;;;;;;;6.20;1.00;;;;;;5060630;28;19981;-75
2021/10/29 05:26:20;;;;;;;;;;;6.30;1.00;;;;;;5061225;28;19909;-74
2021/10/29 05:28:46;;;;;;;;;;;6.30;1.00;;;;;;5060362;28;19912;-75
2021/10/29 05:31:12;;;;;;;;;;;6.30;1.00;;;;;;5057434;28;19919;-76
2021/10/29 05:33:38;;;;;;;;;;;6.40;1.00;;;;;;5051571;28;19980;-75
2021/10/29 05:36:04;;;;;;;;;;;6.40;1.00;;;;;;5050365;28;20451;-76
2021/10/29 05:38:29;;;;;;;;;;;6.40;1.00;;;;;;5051336;28;19991;-75
2021/10/29 05:41:01;;;;;;;;;;;6.50;1.00;;;;;;5031401;28;19917;-75
2021/10/29 05:43:33;;;;;;;;;;;6.50;1.00;;;;;;5020800;28;20003;-77
2021/10/29 05:45:59;;;;;;;;;;;6.50;1.00;;;;;;5045782;28;19916;-77
2021/10/29 05:48:24;;;;;;;;;;;6.40;1.00;;;;;;5022401;28;19919;-75
2021/10/29 05:50:51;;;;;;;;;;;6.40;1.00;;;;;;5050566;28;19912;-75
2021/10/29 05:53:32;;;;;;;;;;;6.40;1.00;;;;;;5030287;28;19935;-75
2021/10/29 05:55:58;;;;;;;;;;;6.40;1.00;;;;;;5049122;28;19929;-76
2021/10/29 05:58:26;;;;;;;;;;;6.40;1.00;;;;;;5045091;28;19920;-78
2021/10/29 06:00:51;;;;;;;;;;;6.50;1.00;;;;;;5047912;28;19943;-75
2021/10/29 06:03:17;;;;;;;;;;;6.60;1.00;;;;;;5048860;28;20338;-74
2021/10/29 06:05:42;;;;;;;;;;;6.60;1.00;;;;;;5047732;28;19940;-76
2021/10/29 06:08:08;;;;;;;;;;;6.60;1.00;;;;;;5048216;28;19920;-76
2021/10/29 06:10:33;;;;;;;;;;;6.60;1.00;;;;;;5031593;28;19913;-76
2021/10/29 06:12:59;;;;;;;;;;;6.60;1.00;;;;;;5048880;28;20560;-75
2021/10/29 06:15:24;;;;;;;;;;;6.60;1.00;;;;;;5049566;28;19921;-75
2021/10/29 06:17:51;;;;;;;;;;;6.60;1.00;;;;;;5033043;28;19913;-76
2021/10/29 06:20:17;;;;;;;;;;;6.60;1.00;;;;;;5050995;28;19920;-75
2021/10/29 06:25:17;;;;;;;;;;;6.50;1.00;;;;;;5051148;28;19927;-76
2021/10/29 06:30:28;;;;;;;;;;;6.40;1.00;;;;;;5054252;28;19942;-75
2021/10/29 06:32:54;;;;;;;;;;;6.40;1.00;;;;;;5033415;28;19912;-75
2021/10/29 06:35:19;;;;;;;;;;;6.40;1.00;;;;;;5051441;28;19920;-74
2021/10/29 06:37:45;;;;;;;;;;;6.50;1.00;;;;;;5053445;28;20005;-75
2021/10/29 06:40:12;;;;;;;;;;;6.50;1.00;;;;;;5054103;28;19917;-75
2021/10/29 06:42:38;;;;;;;;;;;6.50;1.00;;;;;;5035952;28;19990;-74
2021/10/29 06:45:36;;;;;;;;;;;6.50;1.00;;;;;;5079628;22;19928;-72
2021/10/29 07:42:11;;;;;;;;;;;5.90;1.00;;;;;;5049142;28;19924;-74
2021/10/29 07:44:38;;;;;;;;;;;5.80;1.00;;;;;;5048528;28;19921;-73
2021/10/29 07:47:04;;;;;;;;;;;5.90;1.00;;;;;;5037809;28;19917;-74
2021/10/29 07:49:30;;;;;;;;;;;6.10;1.00;;;;;;5029266;28;19909;-75
2021/10/29 07:51:56;;;;;;;;;;;6.20;1.00;;;;;;5028733;28;19915;-72
2021/10/29 07:54:22;;;;;;;;;;;6.20;1.00;;;;;;5029606;28;20263;-73
2021/10/29 07:56:48;;;;;;;;;;;6.20;1.00;;;;;;5028988;28;19967;-73
2021/10/29 07:59:13;;;;;;;;;;;6.30;1.00;;;;;;5029390;28;19917;-73
2021/10/29 08:01:39;;;;;;;;;;;6.40;1.00;;;;;;5048793;28;19913;-73
2021/10/29 08:04:04;;;;;;;;;;;6.60;1.00;;;;;;5048247;28;19909;-73
2021/10/29 08:06:30;;;;;;;;;;;6.70;1.00;;;;;;5049063;28;20361;-72
2021/10/29 08:08:56;;;;;;;;;;;6.80;1.00;;;;;;5047714;28;20003;-73
2021/10/29 08:11:21;;;;;;;;;;;6.90;1.00;;;;;;5049222;28;19908;-72
2021/10/29 08:13:47;;;;;;;;;;;6.90;1.00;;;;;;5048359;28;20281;-73
2021/10/29 08:16:12;;;;;;;;;;;6.90;1.00;;;;;;5048677;28;20015;-73
2021/10/29 08:18:44;;;;;;;;;;;7.00;1.00;;;;;;5048584;28;20301;-74
2021/10/29 08:21:11;;;;;;;;;;;7.00;1.00;;;;;;5049126;28;19928;-73
2021/10/29 08:23:37;;;;;;;;;;;7.20;1.00;;;;;;5047639;28;19913;-74
2021/10/29 08:26:02;;;;;;;;;;;7.30;1.00;;;;;;5048847;28;19916;-74
2021/10/29 08:28:28;;;;;;;;;;;7.30;1.00;;;;;;5048198;28;19919;-73
2021/10/29 08:30:53;;;;;;;;;;;7.40;1.00;;;;;;5048139;28;19974;-74
2021/10/29 08:33:19;;;;;;;;;;;7.50;1.00;;;;;;5048075;28;19955;-73
2021/10/29 08:35:45;;;;;;;;;;;7.60;1.00;;;;;;5048340;28;19948;-74
2021/10/29 08:38:12;;;;;;;;;;;7.60;1.00;;;;;;5048360;28;20348;-73
2021/10/29 08:40:38;;;;;;;;;;;7.60;1.00;;;;;;5039140;28;20012;-73
2021/10/29 08:43:04;;;;;;;;;;;7.80;1.00;;;;;;5052141;28;19967;-75
2021/10/29 08:45:29;;;;;;;;;;;7.70;1.00;;;;;;5052611;28;19917;-74
2021/10/29 08:47:56;;;;;;;;;;;7.80;1.00;;;;;;5052220;28;20391;-74
2021/10/29 08:50:22;;;;;;;;;;;7.70;1.00;;;;;;5052039;28;19912;-74
2021/10/29 08:52:48;;;;;;;;;;;7.70;1.00;;;;;;5051389;28;20276;-74
2021/10/29 08:55:16;;;;;;;;;;;7.80;1.00;;;;;;5051472;28;20446;-74
2021/10/29 08:57:46;;;;;;;;;;;7.90;1.00;;;;;;5060454;28;19974;-74
2021/10/29 09:00:13;;;;;;;;;;;8.00;99.90;;;;;;5060171;28;19912;-75
2021/10/29 09:02:48;;;;;;;;;;;8.10;99.90;;;;;;5060402;28;20419;-74
2021/10/29 09:05:24;;;;;;;;;;;8.10;99.90;;;;;;5062772;28;20266;-74
2021/10/29 09:08:03;;;;;;;;;;;8.20;98.20;;;;;;5051110;28;19971;-75
2021/10/29 09:32:21;;;;;;;;;;;8.70;99.90;;;;;;5048490;28;20077;-73
2021/10/29 09:34:57;;;;;;;;;;;8.60;1.00;;;;;;5050599;28;19920;-73
2021/10/29 09:37:23;;;;;;;;;;;8.70;1.00;;;;;;5051061;28;19913;-72
2021/10/29 09:39:52;;;;;;;;;;;8.60;1.00;;;;;;5052208;28;19909;-73
2021/10/29 09:42:20;;;;;;;;;;;8.70;1.00;;;;;;5050592;28;19974;-72
2021/10/29 09:44:47;;;;;;;;;;;8.70;99.90;;;;;;5051150;28;19921;-73
2021/10/29 09:47:16;;;;;;;;;;;8.70;99.90;;;;;;5046320;28;19912;-72
2021/10/29 09:57:30;;;;;;;;;;;8.90;1.00;;;;;;5051356;28;19996;-73
2021/10/29 09:59:56;;;;;;;;;;;9.00;99.90;;;;;;5051172;28;19916;-75
2021/10/29 10:02:22;;;;;;;;;;;9.00;1.00;;;;;;5051056;28;19919;-73
2021/10/29 10:04:58;;;;;;;;;;;9.00;1.00;;;;;;5051162;28;19966;-73
2021/10/29 10:07:25;;;;;;;;;;;9.00;1.00;;;;;;5050131;28;20006;-74
2021/10/29 10:09:53;;;;;;;;;;;9.00;1.00;;;;;;5049930;28;19999;-72
2021/10/29 10:12:22;;;;;;;;;;;9.00;1.00;;;;;;5050180;28;19909;-71
2021/10/29 10:14:52;;;;;;;;;;;9.10;1.00;;;;;;5050742;28;20007;-72
2021/10/29 10:17:18;;;;;;;;;;;9.10;1.00;;;;;;5051139;28;20362;-73
2021/10/29 10:19:44;;;;;;;;;;;9.10;1.00;;;;;;5050355;28;19916;-73
2021/10/29 10:22:13;;;;;;;;;;;9.10;99.90;;;;;;5049413;28;19917;-74
2021/10/29 10:24:40;;;;;;;;;;;9.00;1.00;;;;;;5050502;28;19913;-73
2021/10/29 10:29:55;;;;;;;;;;;9.00;99.90;;;;;;5049879;28;20242;-72
2021/10/29 10:45:42;;;;;;;;;;;9.00;99.90;;;;;;5057557;28;19917;-72
2021/10/29 10:48:09;;;;;;;;;;;8.80;99.90;;;;;;5053988;28;19945;-73
2021/10/29 10:50:38;;;;;;;;;;;8.90;99.90;;;;;;5069072;28;19920;-74
2021/10/29 10:55:46;;;;;;;;;;;9.10;99.90;;;;;;5050616;28;20360;-73
2021/10/29 10:58:25;;;;;;;;;;;9.20;99.90;;;;;;5062446;28;19959;-74
2021/10/29 11:01:03;;;;;;;;;;;9.30;99.90;;;;;;5050494;28;19912;-74
2021/10/29 11:04:09;;;;;;;;;;;9.40;1.00;;;;;;5059559;28;19916;-73
2021/10/29 11:06:51;;;;;;;;;;;9.40;1.00;;;;;;5051431;28;19920;-71
2021/10/29 11:12:19;;;;;;;;;;;9.60;1.00;;;;;;5049317;28;20356;-72
2021/10/29 11:15:03;;;;;;;;;;;9.60;1.00;;;;;;5049730;28;19923;-71
2021/10/29 11:18:07;;;;;;;;;;;9.60;99.90;;;;;;5051007;28;20265;-70
2021/10/29 11:20:34;;;;;;;;;;;9.60;99.90;;;;;;4971750;28;19922;-72
2021/10/29 11:23:03;;;;;;;;;;;9.40;99.90;;;;;;4966759;28;19914;-72
2021/10/29 11:25:46;;;;;;;;;;;9.20;99.90;;;;;;5008167;28;19920;-74
2021/10/29 11:28:11;;;;;;;;;;;9.00;1.00;;;;;;5049614;28;19912;-73
2021/10/29 11:30:41;;;;;;;;;;;9.00;1.00;;;;;;5049239;28;20008;-73
2021/10/29 11:33:07;;;;;;;;;;;9.10;99.90;;;;;;5049226;28;20237;-73
2021/10/29 11:35:33;;;;;;;;;;;9.20;1.00;;;;;;5049730;28;19909;-74
2021/10/29 11:37:59;;;;;;;;;;;9.00;1.00;;;;;;5048076;28;19913;-74
2021/10/29 11:40:25;;;;;;;;;;;8.90;99.90;;;;;;5034189;28;20388;-74
2021/10/29 11:42:53;;;;;;;;;;;8.80;1.00;;;;;;5029826;28;19965;-73
2021/10/29 11:45:31;;;;;;;;;;;8.40;99.90;;;;;;5029499;28;20370;-74
2021/10/29 11:47:57;;;;;;;;;;;8.40;99.90;;;;;;5046436;28;19916;-73
2021/10/29 11:50:23;;;;;;;;;;;8.40;99.90;;;;;;5049175;28;19944;-74
2021/10/29 11:52:49;;;;;;;;;;;8.40;1.00;;;;;;5063686;28;19912;-75
2021/10/29 11:55:20;;;;;;;;;;;8.60;1.00;;;;;;5049566;28;19915;-74
2021/10/29 11:57:55;;;;;;;;;;;8.70;1.00;;;;;;5031857;28;19913;-74
2021/10/29 12:00:40;;;;;;;;;;;8.70;99.90;;;;;;5049089;28;19932;-73
2021/10/29 12:06:17;;;;;;;;;;;8.80;99.90;;;;;;5049635;28;19911;-73
2021/10/29 12:08:43;;;;;;;;;;;8.90;1.00;;;;;;5048411;28;19940;-73
2021/10/29 12:11:09;;;;;;;;;;;8.90;1.00;;;;;;5049095;28;20330;-74
2021/10/29 12:13:38;;;;;;;;;;;8.90;1.00;;;;;;5048353;28;19916;-74
2021/10/29 12:16:17;;;;;;;;;;;9.10;1.00;;;;;;5048108;28;20359;-73
2021/10/29 12:18:59;;;;;;;;;;;9.10;99.90;;;;;;5048704;28;19916;-73
2021/10/29 12:21:29;;;;;;;;;;;9.10;1.70;;;;;;5049066;28;20301;-74
2021/10/29 12:23:54;;;;;;;;;;;9.10;99.90;;;;;;5047613;28;20316;-73
2021/10/29 12:26:22;;;;;;;;;;;9.00;2.00;;;;;;5048633;28;19909;-75
2021/10/29 12:28:51;;;;;;;;;;;9.00;99.90;;;;;;5031347;28;19936;-75
2021/10/29 12:31:35;;;;;;;;;;;9.20;99.90;;;;;;5048956;28;20411;-73
2021/10/29 13:03:23;;;;;;;;;;;8.60;1.00;;;;;;5047776;28;20151;-73
2021/10/29 13:05:52;;;;;;;;;;;8.70;1.00;;;;;;5048191;28;20272;-73
2021/10/29 13:08:22;;;;;;;;;;;8.70;1.00;;;;;;5047873;28;20365;-71
2021/10/29 13:10:54;;;;;;;;;;;8.80;99.90;;;;;;5048295;28;19913;-73
2021/10/29 13:13:25;;;;;;;;;;;8.80;99.90;;;;;;5048078;28;19939;-72
2021/10/29 13:15:55;;;;;;;;;;;9.00;39.30;;;;;;5048050;28;19952;-73
2021/10/29 13:18:25;;;;;;;;;;;9.10;1.00;;;;;;5048532;28;20038;-72
2021/10/29 13:23:53;;;;;;;;;;;9.40;58.90;;;;;;5047057;28;19944;-72
2021/10/29 14:34:39;;;;;;;;;;;8.80;1.00;;;;;;5036587;28;19939;-73
2021/10/29 14:39:37;;;;;;;;;;;8.90;1.00;;;;;;5049632;28;19923;-72
2021/10/29 14:42:12;;;;;;;;;;;9.10;1.00;;;;;;5050442;28;20373;-74
2021/10/29 15:48:51;;;;;;;;;;;8.30;1.00;;;;;;5049641;28;19939;-73
2021/10/29 15:51:17;;;;;;;;;;;8.40;1.00;;;;;;5048871;28;20254;-72
2021/10/29 15:53:44;;;;;;;;;;;8.40;1.00;;;;;;5048296;28;19909;-73
2021/10/29 16:01:23;;;;;;;;;;;8.50;1.00;;;;;;5049526;28;20017;-72
2021/10/29 16:17:02;;;;;;;;;;;8.40;1.00;;;;;;5048099;28;20273;-72
2021/10/29 16:17:37;;;;;;;;;;;8.40;1.00;;;;;;5049354;28;20016;-73
2021/10/29 16:20:03;;;;;;;;;;;8.30;1.00;;;;;;5048393;28;19992;-74
2021/10/29 16:22:33;;;;;;;;;;;8.30;1.00;;;;;;5045850;28;19917;-74
2021/10/29 16:27:37;;;;;;;;;;;8.30;1.00;;;;;;5049066;28;19915;-74
2021/10/29 16:30:03;;;;;;;;;;;8.20;1.00;;;;;;5048822;28;20512;-74
2021/10/29 16:32:51;;;;;;;;;;;8.10;1.00;;;;;;5048297;28;19978;-74
2021/10/29 16:35:15;;;;;;;;;;;8.10;1.00;;;;;;5048392;28;19909;-73
2021/10/29 16:37:40;;;;;;;;;;;8.00;1.00;;;;;;5049282;28;20389;-74
2021/10/29 16:40:06;;;;;;;;;;;7.90;1.00;;;;;;5047699;28;19960;-74
2021/10/29 16:42:32;;;;;;;;;;;7.90;1.00;;;;;;5048238;28;19992;-73
2021/10/29 16:44:57;;;;;;;;;;;7.90;1.00;;;;;;5048512;28;19927;-74
2021/10/29 16:47:23;;;;;;;;;;;7.90;1.00;;;;;;5048680;28;19908;-74
2021/10/29 16:49:49;;;;;;;;;;;7.90;1.00;;;;;;5048500;28;19915;-74
2021/10/29 16:52:14;;;;;;;;;;;7.90;1.00;;;;;;5047699;28;19946;-74
2021/10/29 16:54:40;;;;;;;;;;;7.80;1.00;;;;;;5047599;28;20003;-74
2021/10/29 16:57:05;;;;;;;;;;;7.80;1.00;;;;;;5049158;28;19913;-75
2021/10/29 16:59:31;;;;;;;;;;;7.80;1.00;;;;;;5048027;28;19908;-74
2021/10/29 17:01:56;;;;;;;;;;;7.70;1.00;;;;;;5048963;28;19913;-74
2021/10/29 17:04:22;;;;;;;;;;;7.70;1.00;;;;;;5052653;28;19939;-74
2021/10/29 17:06:47;;;;;;;;;;;7.70;1.00;;;;;;5053499;28;19916;-74
2021/10/29 17:09:13;;;;;;;;;;;7.70;1.00;;;;;;5051891;28;19935;-75
2021/10/29 17:11:38;;;;;;;;;;;7.70;1.00;;;;;;5052859;28;19909;-73
2021/10/29 17:14:04;;;;;;;;;;;7.80;1.00;;;;;;5051977;28;19996;-75
2021/10/29 17:16:29;;;;;;;;;;;7.90;1.00;;;;;;5051656;28;19916;-75
2021/10/29 17:18:55;;;;;;;;;;;7.90;1.00;;;;;;5051951;28;19967;-74
2021/10/29 17:21:20;;;;;;;;;;;7.90;1.00;;;;;;5052506;28;19909;-75
2021/10/29 17:23:46;;;;;;;;;;;8.00;1.00;;;;;;5050334;28;20733;-75
2021/10/29 17:26:11;;;;;;;;;;;8.00;1.00;;;;;;5052710;28;20273;-75
2021/10/29 17:28:37;;;;;;;;;;;8.00;1.00;;;;;;5052292;28;19908;-74
2021/10/29 17:31:02;;;;;;;;;;;8.10;1.00;;;;;;5051970;28;20370;-75
2021/10/29 17:33:28;;;;;;;;;;;8.10;1.00;;;;;;5051304;28;19955;-75
2021/10/29 17:35:53;;;;;;;;;;;8.10;1.00;;;;;;5051914;28;19927;-75
2021/10/29 17:38:19;;;;;;;;;;;8.10;1.00;;;;;;5051924;28;19909;-73
2021/10/29 17:40:44;;;;;;;;;;;8.10;1.00;;;;;;5051165;28;19917;-75
2021/10/29 17:43:10;;;;;;;;;;;8.20;1.00;;;;;;5051139;28;20314;-75
2021/10/29 17:45:36;;;;;;;;;;;8.10;1.00;;;;;;5051623;28;19916;-75
2021/10/29 17:48:01;;;;;;;;;;;7.90;1.00;;;;;;5052002;28;20016;-74
2021/10/29 17:50:27;;;;;;;;;;;7.80;1.00;;;;;;5051182;28;19940;-74
2021/10/29 17:52:52;;;;;;;;;;;7.50;1.00;;;;;;5051576;28;19909;-75
2021/10/29 17:55:18;;;;;;;;;;;7.50;1.00;;;;;;5051258;28;19908;-75
2021/10/29 17:57:44;;;;;;;;;;;7.40;1.00;;;;;;5052016;28;19963;-74
2021/10/29 18:00:10;;;;;;;;;;;7.40;1.00;;;;;;5051222;28;19909;-75
2021/10/29 18:02:35;;;;;;;;;;;7.40;1.00;;;;;;5032680;28;20366;-74
2021/10/29 18:05:01;;;;;;;;;;;7.50;1.00;;;;;;5051148;28;20685;-74
2021/10/29 18:07:28;;;;;;;;;;;7.50;1.00;;;;;;5051799;28;20000;-74
2021/10/29 18:09:54;;;;;;;;;;;7.50;1.00;;;;;;5050630;28;19940;-74
2021/10/29 18:12:20;;;;;;;;;;;7.60;1.00;;;;;;5051232;28;19908;-73
2021/10/29 18:14:46;;;;;;;;;;;7.70;1.00;;;;;;5049510;28;20305;-73
2021/10/29 18:17:13;;;;;;;;;;;7.70;1.00;;;;;;5051592;28;19915;-73
2021/10/29 18:19:39;;;;;;;;;;;7.70;1.00;;;;;;5050763;28;20325;-74
2021/10/29 18:22:06;;;;;;;;;;;7.80;1.00;;;;;;5050523;28;19940;-73
2021/10/29 18:24:32;;;;;;;;;;;7.80;1.00;;;;;;5050259;28;19909;-74
2021/10/29 18:26:58;;;;;;;;;;;7.80;1.00;;;;;;5051291;28;19909;-74
2021/10/29 18:29:23;;;;;;;;;;;7.70;1.00;;;;;;5050930;28;19909;-74
2021/10/29 18:31:49;;;;;;;;;;;7.70;1.00;;;;;;5050510;28;19919;-74
2021/10/29 18:34:15;;;;;;;;;;;7.60;1.00;;;;;;5032481;28;19916;-73
2021/10/29 18:36:40;;;;;;;;;;;7.60;1.00;;;;;;5051329;28;20650;-74
2021/10/29 18:39:06;;;;;;;;;;;7.60;1.00;;;;;;5050001;28;19955;-73
2021/10/29 18:41:32;;;;;;;;;;;7.70;1.00;;;;;;5051321;28;19913;-74
2021/10/29 18:43:59;;;;;;;;;;;7.70;1.00;;;;;;5050082;28;19921;-74
2021/10/29 18:46:24;;;;;;;;;;;7.70;1.00;;;;;;5083616;22;19982;-75
2021/10/29 18:48:50;;;;;;;;;;;7.70;1.00;;;;;;5073919;28;19916;-75
2021/10/29 18:51:16;;;;;;;;;;;7.70;1.00;;;;;;5070326;28;20247;-76
2021/10/29 18:53:42;;;;;;;;;;;7.60;1.00;;;;;;5071311;28;19915;-74
2021/10/29 18:56:08;;;;;;;;;;;7.70;1.00;;;;;;5072959;28;20280;-75
2021/10/29 18:58:33;;;;;;;;;;;7.70;1.00;;;;;;5072855;28;20317;-75
2021/10/29 19:00:59;;;;;;;;;;;7.60;1.00;;;;;;5072961;28;19918;-75
2021/10/29 19:03:24;;;;;;;;;;;7.60;1.00;;;;;;5072302;28;20317;-75
2021/10/29 19:05:50;;;;;;;;;;;7.60;1.00;;;;;;5071971;28;19936;-75
2021/10/29 19:08:15;;;;;;;;;;;7.70;1.00;;;;;;5073268;28;20264;-75
2021/10/29 19:10:41;;;;;;;;;;;7.60;1.00;;;;;;5071801;28;19912;-75
2021/10/29 19:13:06;;;;;;;;;;;7.60;1.00;;;;;;5072142;28;19913;-75
2021/10/29 19:15:32;;;;;;;;;;;7.40;1.00;;;;;;5069421;28;20007;-75
2021/10/29 19:17:58;;;;;;;;;;;7.30;1.00;;;;;;5073164;28;19913;-74
2021/10/29 19:20:23;;;;;;;;;;;7.00;1.00;;;;;;5071425;28;20018;-75
2021/10/29 19:22:49;;;;;;;;;;;6.80;1.00;;;;;;5072315;28;19912;-75
2021/10/29 19:25:14;;;;;;;;;;;6.80;1.00;;;;;;5072169;28;19969;-76
2021/10/29 19:27:40;;;;;;;;;;;6.90;1.00;;;;;;5073122;28;19924;-76
2021/10/29 19:30:06;;;;;;;;;;;7.00;1.00;;;;;;5073044;28;20527;-76
2021/10/29 19:32:32;;;;;;;;;;;7.10;1.00;;;;;;5071648;28;20005;-76
2021/10/29 19:34:57;;;;;;;;;;;7.20;1.00;;;;;;5070279;28;19920;-76
2021/10/29 19:37:29;;;;;;;;;;;7.30;1.00;;;;;;5072723;28;19986;-75
2021/10/29 19:40:07;;;;;;;;;;;7.40;1.00;;;;;;5071525;28;19913;-75
2021/10/29 19:42:32;;;;;;;;;;;7.40;1.00;;;;;;5071702;28;19916;-75
2021/10/29 19:44:58;;;;;;;;;;;7.50;1.00;;;;;;5070974;28;19920;-75